sensor_id;sensor_type;location;lat;lon;timestamp;pressure;altitude;pressure_sealevel;temperature;humidity
59859;BME280;45734;53.648;9.566;2023-03-16T00:01:25;53851.88;;;-145.06;100.00
59859;BME280;45734;53.648;9.566;2023-03-16T00:06:26;53835.69;;;-145.06;100.00
59859;BME280;45734;53.648;9.566;2023-03-16T00:11:26;53855.94;;;-145.06;100.00
59859;BME280;45734;53.648;9.566;2023-03-16T00:16:26;53819.47;;;-145.06;100.00
59859;BME280;45734;53.648;9.566;2023-03-16T00:21:27;53845.81;;;-145.06;100.00
59859;BME280;45734;53.648;9.566;2023-03-16T00:26:29;53791.13;;;-145.06;100.00
59859;BME280;45734;53.648;9.566;2023-03-16T00:31:30;53876.19;;;-145.06;100.00
59859;BME280;45734;53.648;9.566;2023-03-16T00:36:32;53843.78;;;-145.06;100.00
59859;BME280;45734;53.648;9.566;2023-03-16T00:41:32;53843.78;;;-145.06;100.00
59859;BME280;45734;53.648;9.566;2023-03-16T00:46:37;53837.72;;;-145.06;100.00
59859;BME280;45734;53.648;9.566;2023-03-16T00:51:37;53835.69;;;-145.06;100.00
59859;BME280;45734;53.648;9.566;2023-03-16T00:56:38;53829.59;;;-145.06;100.00
59859;BME280;45734;53.648;9.566;2023-03-16T01:01:38;53843.78;;;-145.06;100.00
59859;BME280;45734;53.648;9.566;2023-03-16T01:06:38;53793.16;;;-145.06;100.00
59859;BME280;45734;53.648;9.566;2023-03-16T01:11:40;53841.75;;;-145.06;100.00
59859;BME280;45734;53.648;9.566;2023-03-16T01:16:44;53831.63;;;-145.06;100.00
59859;BME280;45734;53.648;9.566;2023-03-16T01:21:44;53835.69;;;-145.06;100.00
59859;BME280;45734;53.648;9.566;2023-03-16T01:26:45;53833.66;;;-145.06;100.00
59859;BME280;45734;53.648;9.566;2023-03-16T01:31:45;53823.53;;;-145.06;100.00
59859;BME280;45734;53.648;9.566;2023-03-16T01:36:45;53847.84;;;-145.06;100.00
59859;BME280;45734;53.648;9.566;2023-03-16T01:41:46;53809.34;;;-145.06;100.00
59859;BME280;45734;53.648;9.566;2023-03-16T01:46:47;53853.91;;;-145.06;100.00
59859;BME280;45734;53.648;9.566;2023-03-16T01:51:48;53807.31;;;-145.06;100.00
59859;BME280;45734;53.648;9.566;2023-03-16T01:57:02;53811.38;;;-145.06;100.00
59859;BME280;45734;53.648;9.566;2023-03-16T02:02:05;53835.69;;;-145.06;100.00
59859;BME280;45734;53.648;9.566;2023-03-16T02:07:07;53819.47;;;-145.06;100.00
59859;BME280;45734;53.648;9.566;2023-03-16T02:12:08;53864.03;;;-145.06;100.00
59859;BME280;45734;53.648;9.566;2023-03-16T02:17:09;53847.84;;;-145.06;100.00
59859;BME280;45734;53.648;9.566;2023-03-16T02:22:09;53837.72;;;-145.06;100.00
59859;BME280;45734;53.648;9.566;2023-03-16T02:27:11;53857.97;;;-145.06;100.00
59859;BME280;45734;53.648;9.566;2023-03-16T02:32:12;53811.38;;;-145.06;100.00
59859;BME280;45734;53.648;9.566;2023-03-16T02:37:13;53823.53;;;-145.06;100.00
59859;BME280;45734;53.648;9.566;2023-03-16T02:42:15;53815.44;;;-145.06;100.00
59859;BME280;45734;53.648;9.566;2023-03-16T02:47:28;53823.53;;;-145.06;100.00
59859;BME280;45734;53.648;9.566;2023-03-16T02:52:30;53803.28;;;-145.06;100.00
59859;BME280;45734;53.648;9.566;2023-03-16T02:57:30;53845.81;;;-145.06;100.00
59859;BME280;45734;53.648;9.566;2023-03-16T03:02:30;53819.47;;;-145.06;100.00
59859;BME280;45734;53.648;9.566;2023-03-16T03:07:31;53862.00;;;-145.06;100.00
59859;BME280;45734;53.648;9.566;2023-03-16T03:12:31;53851.88;;;-145.06;100.00
59859;BME280;45734;53.648;9.566;2023-03-16T03:17:32;53843.78;;;-145.06;100.00
59859;BME280;45734;53.648;9.566;2023-03-16T03:22:32;53831.63;;;-145.06;100.00
59859;BME280;45734;53.648;9.566;2023-03-16T03:27:33;53851.88;;;-145.06;100.00
59859;BME280;45734;53.648;9.566;2023-03-16T03:32:33;53833.66;;;-145.06;100.00
59859;BME280;45734;53.648;9.566;2023-03-16T03:37:33;53817.47;;;-145.06;100.00
59859;BME280;45734;53.648;9.566;2023-03-16T03:42:33;53809.34;;;-145.06;100.00
59859;BME280;45734;53.648;9.566;2023-03-16T03:47:33;53811.38;;;-145.06;100.00
59859;BME280;45734;53.648;9.566;2023-03-16T03:52:34;53831.63;;;-145.06;100.00
59859;BME280;45734;53.648;9.566;2023-03-16T03:57:34;53825.56;;;-145.06;100.00
59859;BME280;45734;53.648;9.566;2023-03-16T04:02:34;53851.88;;;-145.06;100.00
59859;BME280;45734;53.648;9.566;2023-03-16T04:07:34;53851.88;;;-145.06;100.00
59859;BME280;45734;53.648;9.566;2023-03-16T04:12:35;53819.47;;;-145.06;100.00
59859;BME280;45734;53.648;9.566;2023-03-16T04:17:35;53809.34;;;-145.06;100.00
59859;BME280;45734;53.648;9.566;2023-03-16T04:22:35;53791.13;;;-145.06;100.00
59859;BME280;45734;53.648;9.566;2023-03-16T04:27:36;53823.53;;;-145.06;100.00
59859;BME280;45734;53.648;9.566;2023-03-16T04:32:36;53864.03;;;-145.06;100.00
59859;BME280;45734;53.648;9.566;2023-03-16T04:37:36;53862.00;;;-145.06;100.00
59859;BME280;45734;53.648;9.566;2023-03-16T04:42:36;53839.72;;;-145.06;100.00
59859;BME280;45734;53.648;9.566;2023-03-16T04:47:37;53813.41;;;-145.06;100.00
59859;BME280;45734;53.648;9.566;2023-03-16T04:52:37;53851.88;;;-145.06;100.00
59859;BME280;45734;53.648;9.566;2023-03-16T04:57:38;53864.03;;;-145.06;100.00
59859;BME280;45734;53.648;9.566;2023-03-16T05:02:38;53847.84;;;-145.06;100.00
59859;BME280;45734;53.648;9.566;2023-03-16T05:07:38;53862.00;;;-145.06;100.00
59859;BME280;45734;53.648;9.566;2023-03-16T05:12:40;53864.03;;;-145.06;100.00
59859;BME280;45734;53.648;9.566;2023-03-16T05:17:40;53827.59;;;-145.06;100.00
59859;BME280;45734;53.648;9.566;2023-03-16T05:22:41;53859.97;;;-145.06;100.00
59859;BME280;45734;53.648;9.566;2023-03-16T05:27:43;53835.69;;;-145.06;100.00
59859;BME280;45734;53.648;9.566;2023-03-16T05:32:46;53835.69;;;-145.06;100.00
59859;BME280;45734;53.648;9.566;2023-03-16T05:37:46;53825.56;;;-145.06;100.00
59859;BME280;45734;53.648;9.566;2023-03-16T05:42:47;53807.31;;;-145.06;100.00
59859;BME280;45734;53.648;9.566;2023-03-16T05:47:48;53783.03;;;-145.06;100.00
59859;BME280;45734;53.648;9.566;2023-03-16T05:52:48;53803.28;;;-145.06;100.00
59859;BME280;45734;53.648;9.566;2023-03-16T05:57:48;53839.72;;;-145.06;100.00
59859;BME280;45734;53.648;9.566;2023-03-16T06:02:50;53758.72;;;-145.06;100.00
59859;BME280;45734;53.648;9.566;2023-03-16T06:07:50;53847.84;;;-145.06;100.00
59859;BME280;45734;53.648;9.566;2023-03-16T06:12:51;53813.41;;;-145.06;100.00
59859;BME280;45734;53.648;9.566;2023-03-16T06:17:51;53821.50;;;-145.06;100.00
59859;BME280;45734;53.648;9.566;2023-03-16T06:22:54;53813.41;;;-145.06;100.00
59859;BME280;45734;53.648;9.566;2023-03-16T06:27:54;53809.34;;;-145.06;100.00
59859;BME280;45734;53.648;9.566;2023-03-16T06:32:54;53785.06;;;-145.06;100.00
59859;BME280;45734;53.648;9.566;2023-03-16T06:37:54;53807.31;;;-145.06;100.00
59859;BME280;45734;53.648;9.566;2023-03-16T06:42:55;53797.22;;;-145.06;100.00
59859;BME280;45734;53.648;9.566;2023-03-16T06:47:55;53778.97;;;-145.06;100.00
59859;BME280;45734;53.648;9.566;2023-03-16T06:52:58;53778.97;;;-145.06;100.00
59859;BME280;45734;53.648;9.566;2023-03-16T06:57:58;53740.50;;;-145.06;100.00
59859;BME280;45734;53.648;9.566;2023-03-16T07:02:59;53756.69;;;-145.06;100.00
59859;BME280;45734;53.648;9.566;2023-03-16T07:08:00;53752.66;;;-145.06;100.00
59859;BME280;45734;53.648;9.566;2023-03-16T07:13:00;53750.63;;;-145.06;100.00
59859;BME280;45734;53.648;9.566;2023-03-16T07:18:01;53764.81;;;-145.06;100.00
59859;BME280;45734;53.648;9.566;2023-03-16T07:23:01;53758.72;;;-145.06;100.00
59859;BME280;45734;53.648;9.566;2023-03-16T07:28:01;53785.06;;;-145.06;100.00
59859;BME280;45734;53.648;9.566;2023-03-16T07:33:02;53764.81;;;-145.06;100.00
59859;BME280;45734;53.648;9.566;2023-03-16T07:38:02;53740.50;;;-145.06;98.61
59859;BME280;45734;53.648;9.566;2023-03-16T07:43:05;53708.09;;;-145.06;91.38
59859;BME280;45734;53.648;9.566;2023-03-16T07:48:12;53742.53;;;-145.06;88.41
59859;BME280;45734;53.648;9.566;2023-03-16T07:53:12;53774.94;;;-145.06;88.88
59859;BME280;45734;53.648;9.566;2023-03-16T07:58:13;53742.53;;;-145.06;85.71
59859;BME280;45734;53.648;9.566;2023-03-16T08:03:13;53724.31;;;-145.06;87.83
59859;BME280;45734;53.648;9.566;2023-03-16T08:08:14;53724.31;;;-145.06;86.18
59859;BME280;45734;53.648;9.566;2023-03-16T08:13:14;53762.78;;;-145.06;87.77
59859;BME280;45734;53.648;9.566;2023-03-16T08:18:15;53728.34;;;-145.06;88.74
59859;BME280;45734;53.648;9.566;2023-03-16T08:23:16;53734.44;;;-145.06;89.98
59859;BME280;45734;53.648;9.566;2023-03-16T08:28:16;53726.31;;;-145.06;86.89
59859;BME280;45734;53.648;9.566;2023-03-16T08:33:16;53720.25;;;-145.06;87.50
59859;BME280;45734;53.648;9.566;2023-03-16T08:38:17;53740.50;;;-145.06;86.54
59859;BME280;45734;53.648;9.566;2023-03-16T08:43:18;53720.25;;;-145.06;81.75
59859;BME280;45734;53.648;9.566;2023-03-16T08:48:18;53722.28;;;-145.06;80.56
59859;BME280;45734;53.648;9.566;2023-03-16T08:53:19;53748.59;;;-145.06;86.23
59859;BME280;45734;53.648;9.566;2023-03-16T08:58:20;53714.19;;;-145.06;79.75
59859;BME280;45734;53.648;9.566;2023-03-16T09:03:20;53720.25;;;-145.06;81.81
59859;BME280;45734;53.648;9.566;2023-03-16T09:08:20;53708.09;;;-145.06;80.47
59859;BME280;45734;53.648;9.566;2023-03-16T09:13:21;53726.31;;;-145.06;76.28
59859;BME280;45734;53.648;9.566;2023-03-16T09:18:21;53667.59;;;-145.06;73.54
59859;BME280;45734;53.648;9.566;2023-03-16T09:23:22;53762.78;;;-145.06;71.99
59859;BME280;45734;53.648;9.566;2023-03-16T09:28:22;53746.56;;;-145.06;73.36
59859;BME280;45734;53.648;9.566;2023-03-16T09:33:23;53726.31;;;-145.06;70.95
59859;BME280;45734;53.648;9.566;2023-03-16T09:38:24;53756.69;;;-145.06;74.19
59859;BME280;45734;53.648;9.566;2023-03-16T09:43:37;53742.53;;;-145.06;75.98
59859;BME280;45734;53.648;9.566;2023-03-16T09:48:42;53770.88;;;-145.06;70.11
59859;BME280;45734;53.648;9.566;2023-03-16T09:53:43;53774.94;;;-145.06;70.60
59859;BME280;45734;53.648;9.566;2023-03-16T09:58:45;53730.38;;;-145.06;72.84
59859;BME280;45734;53.648;9.566;2023-03-16T10:03:53;53740.50;;;-145.06;70.22
59859;BME280;45734;53.648;9.566;2023-03-16T10:14:22;53740.50;;;-145.06;71.71
59859;BME280;45734;53.648;9.566;2023-03-16T10:19:35;53726.31;;;-145.06;66.73
59859;BME280;45734;53.648;9.566;2023-03-16T10:24:41;53754.69;;;-145.06;66.11
59859;BME280;45734;53.648;9.566;2023-03-16T10:29:44;53752.66;;;-145.06;66.16
59859;BME280;45734;53.648;9.566;2023-03-16T10:34:51;53740.50;;;-145.06;69.58
59859;BME280;45734;53.648;9.566;2023-03-16T10:39:52;53734.44;;;-145.06;74.15
59859;BME280;45734;53.648;9.566;2023-03-16T10:44:57;53714.19;;;-145.06;61.34
59859;BME280;45734;53.648;9.566;2023-03-16T10:49:58;53738.47;;;-145.06;50.80
59859;BME280;45734;53.648;9.566;2023-03-16T10:55:14;53716.19;;;-145.06;54.86
59859;BME280;45734;53.648;9.566;2023-03-16T11:00:18;53720.25;;;-145.06;48.67
59859;BME280;45734;53.648;9.566;2023-03-16T11:05:32;53746.56;;;-145.06;49.45
59859;BME280;45734;53.648;9.566;2023-03-16T11:10:33;53728.34;;;-145.06;48.44
59859;BME280;45734;53.648;9.566;2023-03-16T11:20:54;53754.69;;;-145.06;45.16
59859;BME280;45734;53.648;9.566;2023-03-16T11:25:55;53738.47;;;-145.06;47.09
59859;BME280;45734;53.648;9.566;2023-03-16T11:31:58;53726.31;;;-145.06;45.18
59859;BME280;45734;53.648;9.566;2023-03-16T11:36:31;53704.06;;;-145.06;44.75
59859;BME280;45734;53.648;9.566;2023-03-16T11:47:08;53718.22;;;-145.06;41.57
59859;BME280;45734;53.648;9.566;2023-03-16T11:52:41;53772.91;;;-145.06;43.60
59859;BME280;45734;53.648;9.566;2023-03-16T11:57:47;53776.94;;;-145.06;43.91
59859;BME280;45734;53.648;9.566;2023-03-16T12:02:59;53724.31;;;-145.06;43.67
59859;BME280;45734;53.648;9.566;2023-03-16T12:08:28;53772.91;;;-145.06;42.82
59859;BME280;45734;53.648;9.566;2023-03-16T12:23:48;53742.53;;;-145.06;42.04
59859;BME280;45734;53.648;9.566;2023-03-16T12:28:49;53730.38;;;-145.06;41.32
59859;BME280;45734;53.648;9.566;2023-03-16T12:33:59;53760.75;;;-145.06;40.47
59859;BME280;45734;53.648;9.566;2023-03-16T12:39:01;53752.66;;;-145.06;40.65
59859;BME280;45734;53.648;9.566;2023-03-16T12:44:11;53728.34;;;-145.06;41.15
59859;BME280;45734;53.648;9.566;2023-03-16T12:49:14;53706.06;;;-145.06;41.26
59859;BME280;45734;53.648;9.566;2023-03-16T12:54:19;53750.63;;;-145.06;39.80
59859;BME280;45734;53.648;9.566;2023-03-16T12:59:21;53726.31;;;-145.06;39.20
59859;BME280;45734;53.648;9.566;2023-03-16T13:04:32;53714.19;;;-145.06;39.24
59859;BME280;45734;53.648;9.566;2023-03-16T13:09:34;53726.31;;;-145.06;39.07
59859;BME280;45734;53.648;9.566;2023-03-16T13:19:37;53738.47;;;-145.06;40.32
59859;BME280;45734;53.648;9.566;2023-03-16T13:24:38;53781.00;;;-145.06;39.83
59859;BME280;45734;53.648;9.566;2023-03-16T13:29:39;53791.13;;;-145.06;41.71
59859;BME280;45734;53.648;9.566;2023-03-16T13:34:45;53726.31;;;-145.06;43.88
59859;BME280;45734;53.648;9.566;2023-03-16T13:39:51;53673.69;;;-145.06;39.36
59859;BME280;45734;53.648;9.566;2023-03-16T13:44:53;53754.69;;;-145.06;41.29
59859;BME280;45734;53.648;9.566;2023-03-16T13:49:58;53750.63;;;-145.06;39.74
59859;BME280;45734;53.648;9.566;2023-03-16T13:54:59;53746.56;;;-145.06;38.63
59859;BME280;45734;53.648;9.566;2023-03-16T14:00:19;53752.66;;;-145.06;39.45
59859;BME280;45734;53.648;9.566;2023-03-16T14:05:23;53778.97;;;-145.06;40.63
59859;BME280;45734;53.648;9.566;2023-03-16T14:10:30;53750.63;;;-145.06;41.18
59859;BME280;45734;53.648;9.566;2023-03-16T14:15:32;53754.69;;;-145.06;42.30
59859;BME280;45734;53.648;9.566;2023-03-16T14:20:32;53768.84;;;-145.06;41.95
59859;BME280;45734;53.648;9.566;2023-03-16T14:25:32;53697.97;;;-145.06;41.05
59859;BME280;45734;53.648;9.566;2023-03-16T14:30:33;53724.31;;;-145.06;40.18
59859;BME280;45734;53.648;9.566;2023-03-16T14:35:41;53720.25;;;-145.06;40.08
59859;BME280;45734;53.648;9.566;2023-03-16T14:40:41;53730.38;;;-145.06;39.38
59859;BME280;45734;53.648;9.566;2023-03-16T14:45:50;53787.06;;;-145.06;39.32
59859;BME280;45734;53.648;9.566;2023-03-16T14:50:52;53722.28;;;-145.06;41.13
59859;BME280;45734;53.648;9.566;2023-03-16T14:55:57;53708.09;;;-145.06;40.76
59859;BME280;45734;53.648;9.566;2023-03-16T15:00:57;53758.72;;;-145.06;41.94
59859;BME280;45734;53.648;9.566;2023-03-16T15:05:58;53722.28;;;-145.06;41.18
59859;BME280;45734;53.648;9.566;2023-03-16T15:11:01;53754.69;;;-145.06;41.15
59859;BME280;45734;53.648;9.566;2023-03-16T15:16:03;53783.03;;;-145.06;42.29
59859;BME280;45734;53.648;9.566;2023-03-16T15:21:11;53742.53;;;-145.06;43.42
59859;BME280;45734;53.648;9.566;2023-03-16T15:26:20;53748.59;;;-145.06;42.77
59859;BME280;45734;53.648;9.566;2023-03-16T15:31:21;53740.50;;;-145.06;43.73
59859;BME280;45734;53.648;9.566;2023-03-16T15:36:22;53774.94;;;-145.06;43.33
59859;BME280;45734;53.648;9.566;2023-03-16T15:41:23;53783.03;;;-145.06;42.50
59859;BME280;45734;53.648;9.566;2023-03-16T15:46:25;53766.81;;;-145.06;42.70
59859;BME280;45734;53.648;9.566;2023-03-16T15:51:26;53768.84;;;-145.06;40.80
59859;BME280;45734;53.648;9.566;2023-03-16T15:56:28;53726.31;;;-145.06;40.35
59859;BME280;45734;53.648;9.566;2023-03-16T16:01:30;53758.72;;;-145.06;41.16
59859;BME280;45734;53.648;9.566;2023-03-16T16:06:33;53754.69;;;-145.06;41.51
59859;BME280;45734;53.648;9.566;2023-03-16T16:11:34;53764.81;;;-145.06;42.11
59859;BME280;45734;53.648;9.566;2023-03-16T16:16:34;53766.81;;;-145.06;42.58
59859;BME280;45734;53.648;9.566;2023-03-16T16:21:36;53738.47;;;-145.06;43.25
59859;BME280;45734;53.648;9.566;2023-03-16T16:26:37;53791.13;;;-145.06;41.97
59859;BME280;45734;53.648;9.566;2023-03-16T16:31:39;53768.84;;;-145.06;41.45
59859;BME280;45734;53.648;9.566;2023-03-16T16:36:39;53752.66;;;-145.06;41.73
59859;BME280;45734;53.648;9.566;2023-03-16T16:41:40;53770.88;;;-145.06;41.30
59859;BME280;45734;53.648;9.566;2023-03-16T16:46:41;53768.84;;;-145.06;41.37
59859;BME280;45734;53.648;9.566;2023-03-16T16:51:41;53744.56;;;-145.06;41.61
59859;BME280;45734;53.648;9.566;2023-03-16T16:56:42;53762.78;;;-145.06;42.08
59859;BME280;45734;53.648;9.566;2023-03-16T17:01:43;53760.75;;;-145.06;41.01
59859;BME280;45734;53.648;9.566;2023-03-16T17:06:43;53740.50;;;-145.06;40.49
59859;BME280;45734;53.648;9.566;2023-03-16T17:11:44;53746.56;;;-145.06;40.44
59859;BME280;45734;53.648;9.566;2023-03-16T17:16:45;53756.69;;;-145.06;40.84
59859;BME280;45734;53.648;9.566;2023-03-16T17:21:51;53738.47;;;-145.06;41.49
59859;BME280;45734;53.648;9.566;2023-03-16T17:26:52;53754.69;;;-145.06;41.97
59859;BME280;45734;53.648;9.566;2023-03-16T17:31:53;53750.63;;;-145.06;42.57
59859;BME280;45734;53.648;9.566;2023-03-16T17:36:53;53781.00;;;-145.06;43.37
59859;BME280;45734;53.648;9.566;2023-03-16T17:41:55;53772.91;;;-145.06;43.26
59859;BME280;45734;53.648;9.566;2023-03-16T17:46:56;53750.63;;;-145.06;43.18
59859;BME280;45734;53.648;9.566;2023-03-16T17:51:56;53746.56;;;-145.06;42.88
59859;BME280;45734;53.648;9.566;2023-03-16T17:56:56;53746.56;;;-145.06;42.55
59859;BME280;45734;53.648;9.566;2023-03-16T18:01:56;53760.75;;;-145.06;42.90
59859;BME280;45734;53.648;9.566;2023-03-16T18:06:57;53750.63;;;-145.06;42.99
59859;BME280;45734;53.648;9.566;2023-03-16T18:11:57;53760.75;;;-145.06;42.80
59859;BME280;45734;53.648;9.566;2023-03-16T18:16:57;53742.53;;;-145.06;44.06
59859;BME280;45734;53.648;9.566;2023-03-16T18:21:57;53756.69;;;-145.06;44.33
59859;BME280;45734;53.648;9.566;2023-03-16T18:26:58;53744.56;;;-145.06;44.54
59859;BME280;45734;53.648;9.566;2023-03-16T18:31:58;53742.53;;;-145.06;45.12
59859;BME280;45734;53.648;9.566;2023-03-16T18:36:59;53748.59;;;-145.06;45.66
59859;BME280;45734;53.648;9.566;2023-03-16T18:42:05;53766.81;;;-145.06;45.71
59859;BME280;45734;53.648;9.566;2023-03-16T18:47:07;53718.22;;;-145.06;46.44
59859;BME280;45734;53.648;9.566;2023-03-16T18:52:16;53770.88;;;-145.06;46.79
59859;BME280;45734;53.648;9.566;2023-03-16T18:57:18;53710.13;;;-145.06;47.31
59859;BME280;45734;53.648;9.566;2023-03-16T19:02:27;53746.56;;;-145.06;48.70
59859;BME280;45734;53.648;9.566;2023-03-16T19:07:33;53758.72;;;-145.06;49.26
59859;BME280;45734;53.648;9.566;2023-03-16T19:12:34;53746.56;;;-145.06;50.12
59859;BME280;45734;53.648;9.566;2023-03-16T19:17:35;53764.81;;;-145.06;49.69
59859;BME280;45734;53.648;9.566;2023-03-16T19:22:35;53756.69;;;-145.06;49.92
59859;BME280;45734;53.648;9.566;2023-03-16T19:27:35;53754.69;;;-145.06;50.15
59859;BME280;45734;53.648;9.566;2023-03-16T19:32:37;53764.81;;;-145.06;50.84
59859;BME280;45734;53.648;9.566;2023-03-16T19:37:37;53750.63;;;-145.06;51.34
59859;BME280;45734;53.648;9.566;2023-03-16T19:42:37;53740.50;;;-145.06;51.70
59859;BME280;45734;53.648;9.566;2023-03-16T19:47:39;53730.38;;;-145.06;52.39
59859;BME280;45734;53.648;9.566;2023-03-16T19:52:40;53740.50;;;-145.06;52.87
59859;BME280;45734;53.648;9.566;2023-03-16T19:57:40;53706.06;;;-145.06;53.85
59859;BME280;45734;53.648;9.566;2023-03-16T20:02:41;53778.97;;;-145.06;54.41
59859;BME280;45734;53.648;9.566;2023-03-16T20:07:41;53742.53;;;-145.06;54.37
59859;BME280;45734;53.648;9.566;2023-03-16T20:12:42;53762.78;;;-145.06;54.41
59859;BME280;45734;53.648;9.566;2023-03-16T20:17:42;53748.59;;;-145.06;54.56
59859;BME280;45734;53.648;9.566;2023-03-16T20:22:43;53693.94;;;-145.06;54.58
59859;BME280;45734;53.648;9.566;2023-03-16T20:27:52;53722.28;;;-145.06;54.39
59859;BME280;45734;53.648;9.566;2023-03-16T20:32:53;53776.94;;;-145.06;54.18
59859;BME280;45734;53.648;9.566;2023-03-16T20:37:54;53762.78;;;-145.06;54.73
59859;BME280;45734;53.648;9.566;2023-03-16T20:42:55;53740.50;;;-145.06;54.87
59859;BME280;45734;53.648;9.566;2023-03-16T20:47:55;53750.63;;;-145.06;55.57
59859;BME280;45734;53.648;9.566;2023-03-16T20:52:55;53752.66;;;-145.06;55.79
59859;BME280;45734;53.648;9.566;2023-03-16T20:57:56;53730.38;;;-145.06;56.05
59859;BME280;45734;53.648;9.566;2023-03-16T21:02:58;53742.53;;;-145.06;56.21
59859;BME280;45734;53.648;9.566;2023-03-16T21:07:58;53730.38;;;-145.06;56.30
59859;BME280;45734;53.648;9.566;2023-03-16T21:12:58;53752.66;;;-145.06;56.99
59859;BME280;45734;53.648;9.566;2023-03-16T21:18:00;53740.50;;;-145.06;57.46
59859;BME280;45734;53.648;9.566;2023-03-16T21:23:01;53778.97;;;-145.06;57.43
59859;BME280;45734;53.648;9.566;2023-03-16T21:28:02;53730.38;;;-145.06;57.38
59859;BME280;45734;53.648;9.566;2023-03-16T21:33:08;53754.69;;;-145.06;57.07
59859;BME280;45734;53.648;9.566;2023-03-16T21:38:15;53742.53;;;-145.06;58.02
59859;BME280;45734;53.648;9.566;2023-03-16T21:43:16;53795.19;;;-145.06;58.40
59859;BME280;45734;53.648;9.566;2023-03-16T21:48:18;53724.31;;;-145.06;57.27
59859;BME280;45734;53.648;9.566;2023-03-16T21:53:23;53702.03;;;-145.06;56.48
59859;BME280;45734;53.648;9.566;2023-03-16T21:58:24;53742.53;;;-145.06;56.90
59859;BME280;45734;53.648;9.566;2023-03-16T22:03:26;53714.19;;;-145.06;57.08
59859;BME280;45734;53.648;9.566;2023-03-16T22:08:28;53764.81;;;-145.06;57.09
59859;BME280;45734;53.648;9.566;2023-03-16T22:13:28;53793.16;;;-145.06;56.72
59859;BME280;45734;53.648;9.566;2023-03-16T22:23:30;53730.38;;;-145.06;56.43
59859;BME280;45734;53.648;9.566;2023-03-16T22:28:33;53712.16;;;-145.06;56.37
59859;BME280;45734;53.648;9.566;2023-03-16T22:33:33;53752.66;;;-145.06;56.71
59859;BME280;45734;53.648;9.566;2023-03-16T22:38:34;53752.66;;;-145.06;56.49
59859;BME280;45734;53.648;9.566;2023-03-16T22:43:36;53754.69;;;-145.06;56.36
59859;BME280;45734;53.648;9.566;2023-03-16T22:48:37;53746.56;;;-145.06;56.53
59859;BME280;45734;53.648;9.566;2023-03-16T22:53:41;53744.56;;;-145.06;56.64
59859;BME280;45734;53.648;9.566;2023-03-16T22:58:47;53748.59;;;-145.06;57.69
59859;BME280;45734;53.648;9.566;2023-03-16T23:03:49;53706.06;;;-145.06;57.87
59859;BME280;45734;53.648;9.566;2023-03-16T23:08:50;53785.06;;;-145.06;58.43
59859;BME280;45734;53.648;9.566;2023-03-16T23:13:50;53732.41;;;-145.06;58.07
59859;BME280;45734;53.648;9.566;2023-03-16T23:18:53;53734.44;;;-145.06;58.00
59859;BME280;45734;53.648;9.566;2023-03-16T23:23:53;53738.47;;;-145.06;58.93
59859;BME280;45734;53.648;9.566;2023-03-16T23:28:54;53722.28;;;-145.06;58.67
59859;BME280;45734;53.648;9.566;2023-03-16T23:33:55;53734.44;;;-145.06;59.08
59859;BME280;45734;53.648;9.566;2023-03-16T23:38:55;53720.25;;;-145.06;60.10
59859;BME280;45734;53.648;9.566;2023-03-16T23:43:55;53750.63;;;-145.06;61.01
59859;BME280;45734;53.648;9.566;2023-03-16T23:48:57;53762.78;;;-145.06;62.28
59859;BME280;45734;53.648;9.566;2023-03-16T23:54:00;53770.88;;;-145.06;62.58
59859;BME280;45734;53.648;9.566;2023-03-16T23:59:00;53748.59;;;-145.06;63.43
